sensor_id;sensor_type;location;lat;lon;timestamp;P1;durP1;ratioP1;P2;durP2;ratioP2
68951;SDS011;56000;51.146;17.112;2023-04-28T00:00:33;23.00;;;12.30;;
68951;SDS011;56000;51.146;17.112;2023-04-28T00:03:18;24.20;;;10.80;;
68951;SDS011;56000;51.146;17.112;2023-04-28T00:05:48;19.70;;;11.00;;
68951;SDS011;56000;51.146;17.112;2023-04-28T00:08:17;27.40;;;11.10;;
68951;SDS011;56000;51.146;17.112;2023-04-28T00:10:48;18.90;;;10.40;;
68951;SDS011;56000;51.146;17.112;2023-04-28T00:13:18;21.30;;;10.90;;
68951;SDS011;56000;51.146;17.112;2023-04-28T00:15:49;23.40;;;9.60;;
68951;SDS011;56000;51.146;17.112;2023-04-28T00:18:20;21.70;;;11.20;;
68951;SDS011;56000;51.146;17.112;2023-04-28T00:20:50;21.80;;;11.60;;
68951;SDS011;56000;51.146;17.112;2023-04-28T00:23:19;20.60;;;10.60;;
68951;SDS011;56000;51.146;17.112;2023-04-28T00:25:51;17.50;;;10.30;;
68951;SDS011;56000;51.146;17.112;2023-04-28T00:28:21;20.20;;;10.10;;
68951;SDS011;56000;51.146;17.112;2023-04-28T00:30:54;17.10;;;9.40;;
68951;SDS011;56000;51.146;17.112;2023-04-28T00:33:24;16.60;;;9.10;;
68951;SDS011;56000;51.146;17.112;2023-04-28T00:35:59;21.30;;;9.00;;
68951;SDS011;56000;51.146;17.112;2023-04-28T00:38:29;16.80;;;9.10;;
68951;SDS011;56000;51.146;17.112;2023-04-28T00:40:59;21.20;;;10.30;;
68951;SDS011;56000;51.146;17.112;2023-04-28T00:43:29;18.40;;;10.30;;
68951;SDS011;56000;51.146;17.112;2023-04-28T00:45:58;19.80;;;10.10;;
68951;SDS011;56000;51.146;17.112;2023-04-28T00:48:28;17.90;;;8.60;;
68951;SDS011;56000;51.146;17.112;2023-04-28T00:50:58;18.10;;;10.60;;
68951;SDS011;56000;51.146;17.112;2023-04-28T00:53:28;20.20;;;10.00;;
68951;SDS011;56000;51.146;17.112;2023-04-28T00:58:28;20.30;;;10.60;;
68951;SDS011;56000;51.146;17.112;2023-04-28T01:03:32;15.60;;;8.10;;
68951;SDS011;56000;51.146;17.112;2023-04-28T01:06:04;17.10;;;8.30;;
68951;SDS011;56000;51.146;17.112;2023-04-28T01:08:36;15.60;;;8.60;;
68951;SDS011;56000;51.146;17.112;2023-04-28T01:11:09;19.20;;;10.10;;
68951;SDS011;56000;51.146;17.112;2023-04-28T01:14:06;21.90;;;9.30;;
68951;SDS011;56000;51.146;17.112;2023-04-28T01:16:39;20.20;;;7.50;;
68951;SDS011;56000;51.146;17.112;2023-04-28T01:19:11;13.90;;;7.70;;
68951;SDS011;56000;51.146;17.112;2023-04-28T01:21:46;16.80;;;8.40;;
68951;SDS011;56000;51.146;17.112;2023-04-28T01:24:21;19.20;;;9.10;;
68951;SDS011;56000;51.146;17.112;2023-04-28T01:26:50;13.80;;;8.00;;
68951;SDS011;56000;51.146;17.112;2023-04-28T01:29:22;16.90;;;9.40;;
68951;SDS011;56000;51.146;17.112;2023-04-28T01:31:52;18.60;;;9.90;;
68951;SDS011;56000;51.146;17.112;2023-04-28T01:34:22;11.40;;;7.10;;
68951;SDS011;56000;51.146;17.112;2023-04-28T01:36:52;15.40;;;8.00;;
68951;SDS011;56000;51.146;17.112;2023-04-28T01:39:22;17.10;;;8.20;;
68951;SDS011;56000;51.146;17.112;2023-04-28T01:41:52;15.80;;;7.30;;
68951;SDS011;56000;51.146;17.112;2023-04-28T01:44:21;12.70;;;7.00;;
68951;SDS011;56000;51.146;17.112;2023-04-28T01:46:51;15.70;;;7.30;;
68951;SDS011;56000;51.146;17.112;2023-04-28T01:49:22;14.10;;;7.80;;
68951;SDS011;56000;51.146;17.112;2023-04-28T01:51:51;13.40;;;7.40;;
68951;SDS011;56000;51.146;17.112;2023-04-28T01:54:21;16.50;;;6.70;;
68951;SDS011;56000;51.146;17.112;2023-04-28T01:56:51;12.40;;;6.70;;
68951;SDS011;56000;51.146;17.112;2023-04-28T01:59:21;16.20;;;6.70;;
68951;SDS011;56000;51.146;17.112;2023-04-28T02:01:50;14.30;;;6.80;;
68951;SDS011;56000;51.146;17.112;2023-04-28T02:04:21;14.30;;;6.80;;
68951;SDS011;56000;51.146;17.112;2023-04-28T02:06:50;14.50;;;6.90;;
68951;SDS011;56000;51.146;17.112;2023-04-28T02:09:20;12.20;;;7.10;;
68951;SDS011;56000;51.146;17.112;2023-04-28T02:14:21;12.00;;;6.40;;
68951;SDS011;56000;51.146;17.112;2023-04-28T02:16:50;15.00;;;7.20;;
68951;SDS011;56000;51.146;17.112;2023-04-28T02:19:20;14.70;;;8.40;;
68951;SDS011;56000;51.146;17.112;2023-04-28T02:21:49;15.10;;;7.20;;
68951;SDS011;56000;51.146;17.112;2023-04-28T02:24:19;16.10;;;7.40;;
68951;SDS011;56000;51.146;17.112;2023-04-28T02:26:50;13.20;;;6.80;;
68951;SDS011;56000;51.146;17.112;2023-04-28T02:29:20;15.50;;;7.40;;
68951;SDS011;56000;51.146;17.112;2023-04-28T02:31:51;14.50;;;7.40;;
68951;SDS011;56000;51.146;17.112;2023-04-28T02:34:21;10.80;;;6.60;;
68951;SDS011;56000;51.146;17.112;2023-04-28T02:36:51;17.80;;;7.60;;
68951;SDS011;56000;51.146;17.112;2023-04-28T02:39:20;11.70;;;6.20;;
68951;SDS011;56000;51.146;17.112;2023-04-28T02:41:53;14.80;;;7.90;;
68951;SDS011;56000;51.146;17.112;2023-04-28T02:46:52;16.20;;;7.80;;
68951;SDS011;56000;51.146;17.112;2023-04-28T02:49:22;14.60;;;7.00;;
68951;SDS011;56000;51.146;17.112;2023-04-28T02:54:21;15.00;;;8.00;;
68951;SDS011;56000;51.146;17.112;2023-04-28T02:56:55;11.30;;;6.80;;
68951;SDS011;56000;51.146;17.112;2023-04-28T02:59:25;16.80;;;7.70;;
68951;SDS011;56000;51.146;17.112;2023-04-28T03:01:57;15.00;;;7.10;;
68951;SDS011;56000;51.146;17.112;2023-04-28T03:04:27;17.50;;;7.90;;
68951;SDS011;56000;51.146;17.112;2023-04-28T03:06:57;13.90;;;7.20;;
68951;SDS011;56000;51.146;17.112;2023-04-28T03:09:26;12.30;;;7.40;;
68951;SDS011;56000;51.146;17.112;2023-04-28T03:11:56;15.70;;;7.20;;
68951;SDS011;56000;51.146;17.112;2023-04-28T03:14:26;13.40;;;7.90;;
68951;SDS011;56000;51.146;17.112;2023-04-28T03:16:55;19.90;;;8.20;;
68951;SDS011;56000;51.146;17.112;2023-04-28T03:19:25;12.10;;;7.00;;
68951;SDS011;56000;51.146;17.112;2023-04-28T03:21:55;15.40;;;7.90;;
68951;SDS011;56000;51.146;17.112;2023-04-28T03:24:25;12.60;;;8.00;;
68951;SDS011;56000;51.146;17.112;2023-04-28T03:26:55;13.20;;;7.10;;
68951;SDS011;56000;51.146;17.112;2023-04-28T03:29:26;17.80;;;7.80;;
68951;SDS011;56000;51.146;17.112;2023-04-28T03:31:55;15.70;;;9.20;;
68951;SDS011;56000;51.146;17.112;2023-04-28T03:34:25;19.70;;;7.70;;
68951;SDS011;56000;51.146;17.112;2023-04-28T03:36:55;19.20;;;8.60;;
68951;SDS011;56000;51.146;17.112;2023-04-28T03:39:28;20.80;;;8.80;;
68951;SDS011;56000;51.146;17.112;2023-04-28T03:41:58;18.00;;;9.30;;
68951;SDS011;56000;51.146;17.112;2023-04-28T03:44:51;15.40;;;7.80;;
68951;SDS011;56000;51.146;17.112;2023-04-28T03:47:21;19.50;;;9.10;;
68951;SDS011;56000;51.146;17.112;2023-04-28T03:49:51;15.00;;;8.00;;
68951;SDS011;56000;51.146;17.112;2023-04-28T03:52:21;14.90;;;8.50;;
68951;SDS011;56000;51.146;17.112;2023-04-28T03:54:51;17.00;;;9.10;;
68951;SDS011;56000;51.146;17.112;2023-04-28T03:57:20;15.80;;;8.70;;
68951;SDS011;56000;51.146;17.112;2023-04-28T03:59:51;17.20;;;9.00;;
68951;SDS011;56000;51.146;17.112;2023-04-28T04:02:21;19.90;;;8.70;;
68951;SDS011;56000;51.146;17.112;2023-04-28T04:04:51;14.10;;;8.60;;
68951;SDS011;56000;51.146;17.112;2023-04-28T04:07:21;15.70;;;8.80;;
68951;SDS011;56000;51.146;17.112;2023-04-28T04:09:50;15.80;;;9.00;;
68951;SDS011;56000;51.146;17.112;2023-04-28T04:12:20;19.90;;;9.30;;
68951;SDS011;56000;51.146;17.112;2023-04-28T04:14:50;21.50;;;9.90;;
68951;SDS011;56000;51.146;17.112;2023-04-28T04:17:20;18.80;;;9.20;;
68951;SDS011;56000;51.146;17.112;2023-04-28T04:19:50;22.60;;;10.20;;
68951;SDS011;56000;51.146;17.112;2023-04-28T04:22:20;20.60;;;10.00;;
68951;SDS011;56000;51.146;17.112;2023-04-28T04:24:49;18.30;;;10.40;;
68951;SDS011;56000;51.146;17.112;2023-04-28T04:27:19;18.40;;;10.50;;
68951;SDS011;56000;51.146;17.112;2023-04-28T04:29:48;18.90;;;10.00;;
68951;SDS011;56000;51.146;17.112;2023-04-28T04:32:18;18.80;;;9.70;;
68951;SDS011;56000;51.146;17.112;2023-04-28T04:34:48;16.30;;;9.50;;
68951;SDS011;56000;51.146;17.112;2023-04-28T04:37:17;25.60;;;10.70;;
68951;SDS011;56000;51.146;17.112;2023-04-28T04:39:59;19.00;;;9.50;;
68951;SDS011;56000;51.146;17.112;2023-04-28T04:42:30;16.60;;;10.10;;
68951;SDS011;56000;51.146;17.112;2023-04-28T04:45:12;20.00;;;10.10;;
68951;SDS011;56000;51.146;17.112;2023-04-28T04:47:42;18.40;;;10.20;;
68951;SDS011;56000;51.146;17.112;2023-04-28T04:50:12;21.40;;;10.30;;
68951;SDS011;56000;51.146;17.112;2023-04-28T04:52:42;19.30;;;10.20;;
68951;SDS011;56000;51.146;17.112;2023-04-28T04:55:12;17.80;;;10.20;;
68951;SDS011;56000;51.146;17.112;2023-04-28T04:57:42;23.60;;;11.20;;
68951;SDS011;56000;51.146;17.112;2023-04-28T05:00:21;19.50;;;10.40;;
68951;SDS011;56000;51.146;17.112;2023-04-28T05:02:53;21.80;;;10.80;;
68951;SDS011;56000;51.146;17.112;2023-04-28T05:05:23;20.40;;;11.20;;
68951;SDS011;56000;51.146;17.112;2023-04-28T05:08:13;22.90;;;11.80;;
68951;SDS011;56000;51.146;17.112;2023-04-28T05:10:43;22.50;;;11.00;;
68951;SDS011;56000;51.146;17.112;2023-04-28T05:13:13;20.10;;;11.80;;
68951;SDS011;56000;51.146;17.112;2023-04-28T05:15:43;22.40;;;11.80;;
68951;SDS011;56000;51.146;17.112;2023-04-28T05:18:24;25.10;;;11.00;;
68951;SDS011;56000;51.146;17.112;2023-04-28T05:20:54;20.00;;;11.60;;
68951;SDS011;56000;51.146;17.112;2023-04-28T05:23:23;27.60;;;11.70;;
68951;SDS011;56000;51.146;17.112;2023-04-28T05:25:53;22.80;;;11.60;;
68951;SDS011;56000;51.146;17.112;2023-04-28T05:28:23;25.70;;;11.90;;
68951;SDS011;56000;51.146;17.112;2023-04-28T05:30:55;22.70;;;11.10;;
68951;SDS011;56000;51.146;17.112;2023-04-28T05:33:24;21.70;;;11.40;;
68951;SDS011;56000;51.146;17.112;2023-04-28T05:35:54;19.90;;;10.30;;
68951;SDS011;56000;51.146;17.112;2023-04-28T05:38:24;23.90;;;12.80;;
68951;SDS011;56000;51.146;17.112;2023-04-28T05:40:54;23.00;;;11.10;;
68951;SDS011;56000;51.146;17.112;2023-04-28T05:43:24;25.00;;;11.50;;
68951;SDS011;56000;51.146;17.112;2023-04-28T05:45:54;24.80;;;12.10;;
68951;SDS011;56000;51.146;17.112;2023-04-28T05:48:24;28.00;;;12.30;;
68951;SDS011;56000;51.146;17.112;2023-04-28T05:50:55;20.50;;;11.20;;
68951;SDS011;56000;51.146;17.112;2023-04-28T05:55:54;19.10;;;10.50;;
68951;SDS011;56000;51.146;17.112;2023-04-28T05:58:24;25.70;;;12.10;;
68951;SDS011;56000;51.146;17.112;2023-04-28T06:00:53;17.90;;;10.20;;
68951;SDS011;56000;51.146;17.112;2023-04-28T06:03:23;22.40;;;11.60;;
68951;SDS011;56000;51.146;17.112;2023-04-28T06:08:23;23.10;;;10.90;;
68951;SDS011;56000;51.146;17.112;2023-04-28T06:10:53;20.20;;;10.90;;
68951;SDS011;56000;51.146;17.112;2023-04-28T06:13:23;23.70;;;11.40;;
68951;SDS011;56000;51.146;17.112;2023-04-28T06:15:52;23.20;;;12.30;;
68951;SDS011;56000;51.146;17.112;2023-04-28T06:18:22;29.70;;;13.50;;
68951;SDS011;56000;51.146;17.112;2023-04-28T06:20:52;28.70;;;12.50;;
68951;SDS011;56000;51.146;17.112;2023-04-28T06:23:22;19.80;;;11.30;;
68951;SDS011;56000;51.146;17.112;2023-04-28T06:25:52;20.50;;;11.40;;
68951;SDS011;56000;51.146;17.112;2023-04-28T06:28:21;23.20;;;11.80;;
68951;SDS011;56000;51.146;17.112;2023-04-28T06:30:53;21.20;;;11.70;;
68951;SDS011;56000;51.146;17.112;2023-04-28T06:33:23;20.60;;;11.50;;
68951;SDS011;56000;51.146;17.112;2023-04-28T06:35:53;22.10;;;10.50;;
68951;SDS011;56000;51.146;17.112;2023-04-28T06:38:23;21.70;;;12.10;;
68951;SDS011;56000;51.146;17.112;2023-04-28T06:40:52;24.30;;;12.70;;
68951;SDS011;56000;51.146;17.112;2023-04-28T06:43:22;21.80;;;12.10;;
68951;SDS011;56000;51.146;17.112;2023-04-28T06:46:01;24.00;;;11.20;;
68951;SDS011;56000;51.146;17.112;2023-04-28T06:48:31;19.90;;;11.20;;
68951;SDS011;56000;51.146;17.112;2023-04-28T06:51:01;21.60;;;10.70;;
68951;SDS011;56000;51.146;17.112;2023-04-28T06:53:31;18.60;;;10.60;;
68951;SDS011;56000;51.146;17.112;2023-04-28T06:56:00;21.00;;;10.80;;
68951;SDS011;56000;51.146;17.112;2023-04-28T06:58:30;23.10;;;11.40;;
68951;SDS011;56000;51.146;17.112;2023-04-28T07:01:00;18.10;;;10.60;;
68951;SDS011;56000;51.146;17.112;2023-04-28T07:03:30;19.20;;;11.10;;
68951;SDS011;56000;51.146;17.112;2023-04-28T07:06:00;16.50;;;9.80;;
68951;SDS011;56000;51.146;17.112;2023-04-28T07:08:31;18.20;;;10.00;;
68951;SDS011;56000;51.146;17.112;2023-04-28T07:11:01;19.60;;;11.20;;
68951;SDS011;56000;51.146;17.112;2023-04-28T07:13:31;18.30;;;10.50;;
68951;SDS011;56000;51.146;17.112;2023-04-28T07:16:01;21.50;;;10.70;;
68951;SDS011;56000;51.146;17.112;2023-04-28T07:18:31;19.30;;;10.80;;
68951;SDS011;56000;51.146;17.112;2023-04-28T07:21:00;20.20;;;11.00;;
68951;SDS011;56000;51.146;17.112;2023-04-28T07:23:32;18.50;;;10.40;;
68951;SDS011;56000;51.146;17.112;2023-04-28T07:26:02;20.70;;;10.10;;
68951;SDS011;56000;51.146;17.112;2023-04-28T07:28:32;16.80;;;8.60;;
68951;SDS011;56000;51.146;17.112;2023-04-28T07:31:02;17.70;;;8.60;;
68951;SDS011;56000;51.146;17.112;2023-04-28T07:33:32;17.70;;;8.50;;
68951;SDS011;56000;51.146;17.112;2023-04-28T07:36:02;16.40;;;8.20;;
68951;SDS011;56000;51.146;17.112;2023-04-28T07:38:34;16.10;;;9.60;;
68951;SDS011;56000;51.146;17.112;2023-04-28T07:41:04;16.60;;;8.80;;
68951;SDS011;56000;51.146;17.112;2023-04-28T07:43:39;16.30;;;8.10;;
68951;SDS011;56000;51.146;17.112;2023-04-28T07:46:09;17.00;;;8.40;;
68951;SDS011;56000;51.146;17.112;2023-04-28T07:48:40;17.50;;;8.10;;
68951;SDS011;56000;51.146;17.112;2023-04-28T07:51:10;14.90;;;7.30;;
68951;SDS011;56000;51.146;17.112;2023-04-28T07:53:40;19.80;;;7.20;;
68951;SDS011;56000;51.146;17.112;2023-04-28T07:56:10;20.80;;;7.70;;
68951;SDS011;56000;51.146;17.112;2023-04-28T07:58:40;14.20;;;7.40;;
68951;SDS011;56000;51.146;17.112;2023-04-28T08:01:10;15.80;;;7.30;;
68951;SDS011;56000;51.146;17.112;2023-04-28T08:03:40;16.90;;;7.10;;
68951;SDS011;56000;51.146;17.112;2023-04-28T08:06:10;12.90;;;6.60;;
68951;SDS011;56000;51.146;17.112;2023-04-28T08:08:40;16.00;;;6.90;;
68951;SDS011;56000;51.146;17.112;2023-04-28T08:13:39;20.20;;;6.90;;
68951;SDS011;56000;51.146;17.112;2023-04-28T08:16:08;14.40;;;7.30;;
68951;SDS011;56000;51.146;17.112;2023-04-28T08:18:38;13.30;;;6.20;;
68951;SDS011;56000;51.146;17.112;2023-04-28T08:21:09;12.00;;;5.50;;
68951;SDS011;56000;51.146;17.112;2023-04-28T08:23:38;13.50;;;7.10;;
68951;SDS011;56000;51.146;17.112;2023-04-28T08:26:08;8.20;;;5.30;;
68951;SDS011;56000;51.146;17.112;2023-04-28T08:28:39;18.00;;;6.40;;
68951;SDS011;56000;51.146;17.112;2023-04-28T08:31:09;11.50;;;6.90;;
68951;SDS011;56000;51.146;17.112;2023-04-28T08:33:39;14.00;;;7.10;;
68951;SDS011;56000;51.146;17.112;2023-04-28T08:36:11;9.70;;;5.60;;
68951;SDS011;56000;51.146;17.112;2023-04-28T08:38:42;10.10;;;5.50;;
68951;SDS011;56000;51.146;17.112;2023-04-28T08:41:13;17.40;;;6.10;;
68951;SDS011;56000;51.146;17.112;2023-04-28T08:43:44;11.80;;;5.30;;
68951;SDS011;56000;51.146;17.112;2023-04-28T08:46:15;13.10;;;5.70;;
68951;SDS011;56000;51.146;17.112;2023-04-28T08:48:49;8.90;;;4.70;;
68951;SDS011;56000;51.146;17.112;2023-04-28T08:51:26;10.80;;;3.70;;
68951;SDS011;56000;51.146;17.112;2023-04-28T08:54:02;10.80;;;3.30;;
68951;SDS011;56000;51.146;17.112;2023-04-28T08:56:36;6.70;;;3.30;;
68951;SDS011;56000;51.146;17.112;2023-04-28T08:59:06;7.10;;;3.50;;
68951;SDS011;56000;51.146;17.112;2023-04-28T09:01:36;9.30;;;3.70;;
68951;SDS011;56000;51.146;17.112;2023-04-28T09:04:06;8.80;;;4.30;;
68951;SDS011;56000;51.146;17.112;2023-04-28T09:06:41;7.60;;;3.70;;
68951;SDS011;56000;51.146;17.112;2023-04-28T09:09:19;9.70;;;4.30;;
68951;SDS011;56000;51.146;17.112;2023-04-28T09:11:56;6.20;;;4.00;;
68951;SDS011;56000;51.146;17.112;2023-04-28T09:14:28;10.90;;;5.10;;
68951;SDS011;56000;51.146;17.112;2023-04-28T09:17:00;8.90;;;4.10;;
68951;SDS011;56000;51.146;17.112;2023-04-28T09:19:33;13.60;;;4.90;;
68951;SDS011;56000;51.146;17.112;2023-04-28T09:22:05;11.10;;;4.80;;
68951;SDS011;56000;51.146;17.112;2023-04-28T09:24:53;8.80;;;4.50;;
68951;SDS011;56000;51.146;17.112;2023-04-28T09:27:27;9.20;;;4.20;;
68951;SDS011;56000;51.146;17.112;2023-04-28T09:29:57;9.00;;;4.10;;
68951;SDS011;56000;51.146;17.112;2023-04-28T09:32:27;9.30;;;4.90;;
68951;SDS011;56000;51.146;17.112;2023-04-28T09:34:57;7.60;;;4.50;;
68951;SDS011;56000;51.146;17.112;2023-04-28T09:37:28;10.50;;;5.00;;
68951;SDS011;56000;51.146;17.112;2023-04-28T09:40:04;9.00;;;5.20;;
68951;SDS011;56000;51.146;17.112;2023-04-28T09:42:36;10.90;;;5.20;;
68951;SDS011;56000;51.146;17.112;2023-04-28T09:45:09;12.70;;;5.00;;
68951;SDS011;56000;51.146;17.112;2023-04-28T09:47:41;8.30;;;4.60;;
68951;SDS011;56000;51.146;17.112;2023-04-28T09:50:14;11.70;;;5.20;;
68951;SDS011;56000;51.146;17.112;2023-04-28T09:52:54;10.30;;;5.10;;
68951;SDS011;56000;51.146;17.112;2023-04-28T09:55:25;10.60;;;5.00;;
68951;SDS011;56000;51.146;17.112;2023-04-28T09:57:57;9.20;;;4.70;;
68951;SDS011;56000;51.146;17.112;2023-04-28T10:00:34;11.20;;;5.40;;
68951;SDS011;56000;51.146;17.112;2023-04-28T10:03:06;7.50;;;4.60;;
68951;SDS011;56000;51.146;17.112;2023-04-28T10:05:38;8.30;;;4.80;;
68951;SDS011;56000;51.146;17.112;2023-04-28T10:08:08;12.90;;;5.20;;
68951;SDS011;56000;51.146;17.112;2023-04-28T10:10:38;14.20;;;4.50;;
68951;SDS011;56000;51.146;17.112;2023-04-28T10:13:09;11.40;;;4.80;;
68951;SDS011;56000;51.146;17.112;2023-04-28T10:15:40;6.90;;;3.90;;
68951;SDS011;56000;51.146;17.112;2023-04-28T10:18:11;10.50;;;4.40;;
68951;SDS011;56000;51.146;17.112;2023-04-28T10:20:44;8.50;;;4.50;;
68951;SDS011;56000;51.146;17.112;2023-04-28T10:23:38;13.10;;;5.40;;
68951;SDS011;56000;51.146;17.112;2023-04-28T10:29:34;15.70;;;4.00;;
68951;SDS011;56000;51.146;17.112;2023-04-28T10:32:21;14.30;;;5.00;;
68951;SDS011;56000;51.146;17.112;2023-04-28T10:34:53;10.50;;;4.70;;
68951;SDS011;56000;51.146;17.112;2023-04-28T10:38:06;11.90;;;4.00;;
68951;SDS011;56000;51.146;17.112;2023-04-28T10:40:38;8.60;;;4.20;;
68951;SDS011;56000;51.146;17.112;2023-04-28T10:43:10;8.80;;;4.10;;
68951;SDS011;56000;51.146;17.112;2023-04-28T10:46:01;10.80;;;4.00;;
68951;SDS011;56000;51.146;17.112;2023-04-28T10:48:55;8.70;;;4.20;;
68951;SDS011;56000;51.146;17.112;2023-04-28T10:51:32;9.60;;;4.10;;
68951;SDS011;56000;51.146;17.112;2023-04-28T10:54:18;7.40;;;3.70;;
68951;SDS011;56000;51.146;17.112;2023-04-28T10:57:15;5.80;;;3.70;;
68951;SDS011;56000;51.146;17.112;2023-04-28T10:59:49;9.90;;;4.30;;
68951;SDS011;56000;51.146;17.112;2023-04-28T11:02:48;7.30;;;4.80;;
68951;SDS011;56000;51.146;17.112;2023-04-28T11:05:18;8.50;;;3.80;;
68951;SDS011;56000;51.146;17.112;2023-04-28T11:11:26;9.40;;;3.90;;
68951;SDS011;56000;51.146;17.112;2023-04-28T11:14:32;7.70;;;3.40;;
68951;SDS011;56000;51.146;17.112;2023-04-28T11:17:03;10.70;;;3.40;;
68951;SDS011;56000;51.146;17.112;2023-04-28T11:19:36;7.10;;;3.60;;
68951;SDS011;56000;51.146;17.112;2023-04-28T11:22:14;9.50;;;3.70;;
68951;SDS011;56000;51.146;17.112;2023-04-28T11:24:55;7.40;;;3.60;;
68951;SDS011;56000;51.146;17.112;2023-04-28T11:27:27;12.00;;;3.70;;
68951;SDS011;56000;51.146;17.112;2023-04-28T11:29:57;9.00;;;3.50;;
68951;SDS011;56000;51.146;17.112;2023-04-28T11:32:29;6.90;;;3.50;;
68951;SDS011;56000;51.146;17.112;2023-04-28T11:35:00;6.70;;;3.40;;
68951;SDS011;56000;51.146;17.112;2023-04-28T11:37:31;6.80;;;3.10;;
68951;SDS011;56000;51.146;17.112;2023-04-28T11:40:10;8.20;;;2.90;;
68951;SDS011;56000;51.146;17.112;2023-04-28T11:42:47;9.20;;;3.00;;
68951;SDS011;56000;51.146;17.112;2023-04-28T11:45:17;7.50;;;3.20;;
68951;SDS011;56000;51.146;17.112;2023-04-28T11:47:47;11.00;;;3.20;;
68951;SDS011;56000;51.146;17.112;2023-04-28T11:50:17;7.00;;;2.90;;
68951;SDS011;56000;51.146;17.112;2023-04-28T11:53:04;7.40;;;3.20;;
68951;SDS011;56000;51.146;17.112;2023-04-28T11:55:34;5.60;;;3.00;;
68951;SDS011;56000;51.146;17.112;2023-04-28T11:58:23;7.90;;;3.10;;
68951;SDS011;56000;51.146;17.112;2023-04-28T12:01:15;7.80;;;2.90;;
68951;SDS011;56000;51.146;17.112;2023-04-28T12:03:45;5.10;;;2.90;;
68951;SDS011;56000;51.146;17.112;2023-04-28T12:06:17;5.70;;;3.20;;
68951;SDS011;56000;51.146;17.112;2023-04-28T12:08:47;9.40;;;3.10;;
68951;SDS011;56000;51.146;17.112;2023-04-28T12:11:17;6.10;;;2.90;;
68951;SDS011;56000;51.146;17.112;2023-04-28T12:14:07;9.10;;;4.10;;
68951;SDS011;56000;51.146;17.112;2023-04-28T12:16:42;9.10;;;3.10;;
68951;SDS011;56000;51.146;17.112;2023-04-28T12:19:12;14.80;;;3.20;;
68951;SDS011;56000;51.146;17.112;2023-04-28T12:21:43;8.90;;;3.00;;
68951;SDS011;56000;51.146;17.112;2023-04-28T12:24:25;7.60;;;3.10;;
68951;SDS011;56000;51.146;17.112;2023-04-28T12:27:03;6.10;;;3.20;;
68951;SDS011;56000;51.146;17.112;2023-04-28T12:29:43;7.40;;;3.00;;
68951;SDS011;56000;51.146;17.112;2023-04-28T12:32:14;8.20;;;3.00;;
68951;SDS011;56000;51.146;17.112;2023-04-28T12:34:44;7.90;;;3.30;;
68951;SDS011;56000;51.146;17.112;2023-04-28T12:37:15;7.60;;;3.40;;
68951;SDS011;56000;51.146;17.112;2023-04-28T12:39:44;8.50;;;3.00;;
68951;SDS011;56000;51.146;17.112;2023-04-28T12:42:14;6.10;;;3.10;;
68951;SDS011;56000;51.146;17.112;2023-04-28T12:44:44;8.30;;;3.00;;
68951;SDS011;56000;51.146;17.112;2023-04-28T12:47:14;5.40;;;2.40;;
68951;SDS011;56000;51.146;17.112;2023-04-28T12:49:45;8.50;;;3.10;;
68951;SDS011;56000;51.146;17.112;2023-04-28T12:52:17;6.70;;;2.50;;
68951;SDS011;56000;51.146;17.112;2023-04-28T12:54:47;7.30;;;2.70;;
68951;SDS011;56000;51.146;17.112;2023-04-28T12:57:18;8.70;;;3.00;;
68951;SDS011;56000;51.146;17.112;2023-04-28T12:59:48;6.00;;;2.70;;
68951;SDS011;56000;51.146;17.112;2023-04-28T13:02:19;13.30;;;2.90;;
68951;SDS011;56000;51.146;17.112;2023-04-28T13:04:49;7.30;;;2.70;;
68951;SDS011;56000;51.146;17.112;2023-04-28T13:07:20;7.30;;;2.80;;
68951;SDS011;56000;51.146;17.112;2023-04-28T13:09:49;7.40;;;2.70;;
68951;SDS011;56000;51.146;17.112;2023-04-28T13:12:19;8.20;;;2.60;;
68951;SDS011;56000;51.146;17.112;2023-04-28T13:14:50;6.10;;;2.50;;
68951;SDS011;56000;51.146;17.112;2023-04-28T13:17:20;6.50;;;2.90;;
68951;SDS011;56000;51.146;17.112;2023-04-28T13:19:50;4.40;;;2.60;;
68951;SDS011;56000;51.146;17.112;2023-04-28T13:22:19;5.90;;;2.60;;
68951;SDS011;56000;51.146;17.112;2023-04-28T13:24:49;6.60;;;2.60;;
68951;SDS011;56000;51.146;17.112;2023-04-28T13:27:19;6.80;;;2.70;;
68951;SDS011;56000;51.146;17.112;2023-04-28T13:29:49;6.10;;;2.40;;
68951;SDS011;56000;51.146;17.112;2023-04-28T13:32:18;6.80;;;2.50;;
68951;SDS011;56000;51.146;17.112;2023-04-28T13:34:48;5.20;;;2.30;;
68951;SDS011;56000;51.146;17.112;2023-04-28T13:37:18;7.70;;;2.60;;
68951;SDS011;56000;51.146;17.112;2023-04-28T13:39:48;5.60;;;2.50;;
68951;SDS011;56000;51.146;17.112;2023-04-28T13:42:18;10.30;;;3.50;;
68951;SDS011;56000;51.146;17.112;2023-04-28T13:44:47;7.50;;;2.80;;
68951;SDS011;56000;51.146;17.112;2023-04-28T13:47:18;12.50;;;3.00;;
68951;SDS011;56000;51.146;17.112;2023-04-28T13:49:48;4.30;;;2.40;;
68951;SDS011;56000;51.146;17.112;2023-04-28T13:52:18;5.70;;;2.30;;
68951;SDS011;56000;51.146;17.112;2023-04-28T13:54:49;10.60;;;3.00;;
68951;SDS011;56000;51.146;17.112;2023-04-28T13:57:19;6.30;;;2.20;;
68951;SDS011;56000;51.146;17.112;2023-04-28T13:59:48;6.40;;;2.50;;
68951;SDS011;56000;51.146;17.112;2023-04-28T14:02:18;4.20;;;2.10;;
68951;SDS011;56000;51.146;17.112;2023-04-28T14:04:48;6.60;;;2.20;;
68951;SDS011;56000;51.146;17.112;2023-04-28T14:07:20;7.00;;;2.10;;
68951;SDS011;56000;51.146;17.112;2023-04-28T14:09:49;8.10;;;2.20;;
68951;SDS011;56000;51.146;17.112;2023-04-28T14:12:19;2.80;;;1.90;;
68951;SDS011;56000;51.146;17.112;2023-04-28T14:14:49;5.10;;;2.20;;
68951;SDS011;56000;51.146;17.112;2023-04-28T14:17:18;4.70;;;2.30;;
68951;SDS011;56000;51.146;17.112;2023-04-28T14:19:48;7.20;;;2.40;;
68951;SDS011;56000;51.146;17.112;2023-04-28T14:22:18;16.30;;;7.30;;
68951;SDS011;56000;51.146;17.112;2023-04-28T14:24:48;9.40;;;2.50;;
68951;SDS011;56000;51.146;17.112;2023-04-28T14:27:17;7.50;;;2.20;;
68951;SDS011;56000;51.146;17.112;2023-04-28T14:29:48;8.70;;;2.80;;
68951;SDS011;56000;51.146;17.112;2023-04-28T14:32:17;8.60;;;2.40;;
68951;SDS011;56000;51.146;17.112;2023-04-28T14:34:48;6.70;;;2.30;;
68951;SDS011;56000;51.146;17.112;2023-04-28T14:37:18;2.90;;;1.70;;
68951;SDS011;56000;51.146;17.112;2023-04-28T14:39:48;9.10;;;2.40;;
68951;SDS011;56000;51.146;17.112;2023-04-28T14:42:18;12.60;;;3.20;;
68951;SDS011;56000;51.146;17.112;2023-04-28T14:44:48;11.40;;;2.40;;
68951;SDS011;56000;51.146;17.112;2023-04-28T14:47:21;11.90;;;2.40;;
68951;SDS011;56000;51.146;17.112;2023-04-28T14:49:51;8.50;;;2.30;;
68951;SDS011;56000;51.146;17.112;2023-04-28T14:52:22;5.40;;;2.30;;
68951;SDS011;56000;51.146;17.112;2023-04-28T14:54:55;5.50;;;2.10;;
68951;SDS011;56000;51.146;17.112;2023-04-28T14:57:26;4.40;;;2.00;;
68951;SDS011;56000;51.146;17.112;2023-04-28T14:59:56;5.80;;;2.40;;
68951;SDS011;56000;51.146;17.112;2023-04-28T15:02:26;7.80;;;2.40;;
68951;SDS011;56000;51.146;17.112;2023-04-28T15:04:57;4.90;;;2.10;;
68951;SDS011;56000;51.146;17.112;2023-04-28T15:09:58;11.30;;;2.50;;
68951;SDS011;56000;51.146;17.112;2023-04-28T15:12:28;5.60;;;2.20;;
68951;SDS011;56000;51.146;17.112;2023-04-28T15:14:58;7.40;;;2.00;;
68951;SDS011;56000;51.146;17.112;2023-04-28T15:17:28;8.70;;;2.60;;
68951;SDS011;56000;51.146;17.112;2023-04-28T15:19:58;9.10;;;2.20;;